Time;durP1;ratioP1;P1;durP2;ratioP2;P2;SDS_P1;SDS_P2;PMS_P1;PMS_P2;Temp;Humidity;BMP_temperature;BMP_pressure;BME280_temperature;BME280_humidity;BME280_pressure;Samples;Min_cycle;Max_cycle;Signal;HPM_P1;HPM_P2
2022/07/27 00:00:16;;;;;;;3.13;2.13;;;;;;;18.34;54.16;95670.47;5010969;28;20190;-78
2022/07/27 00:02:41;;;;;;;3.40;2.28;;;;;;;18.37;54.32;95661.41;5049079;28;20209;-78
2022/07/27 00:05:07;;;;;;;5.97;1.90;;;;;;;18.35;54.47;95666.03;5026854;28;20197;-80
2022/07/27 00:07:32;;;;;;;2.55;1.88;;;;;;;18.40;54.46;95664.47;5015921;28;20281;-78
2022/07/27 00:09:57;;;;;;;5.78;2.33;;;;;;;18.34;54.67;95667.84;5029276;28;20182;-78
2022/07/27 00:12:22;;;;;;;5.18;2.20;;;;;;;18.30;54.81;95666.63;5027478;28;20217;-77
2022/07/27 00:14:48;;;;;;;4.55;2.08;;;;;;;18.42;54.54;95673.97;5025313;28;20233;-78
2022/07/27 00:17:13;;;;;;;5.88;2.40;;;;;;;18.39;54.76;95667.28;5028862;28;20488;-77
2022/07/27 00:19:38;;;;;;;2.67;2.28;;;;;;;18.36;54.55;95678.97;5012413;28;20186;-78
2022/07/27 00:22:04;;;;;;;2.85;2.30;;;;;;;18.30;54.87;95677.16;5023852;28;20214;-78
2022/07/27 00:24:29;;;;;;;3.15;2.20;;;;;;;18.34;55.09;95677.56;5011224;28;20189;-78
2022/07/27 00:26:54;;;;;;;3.38;2.08;;;;;;;18.33;54.73;95673.31;5047380;28;20193;-78
2022/07/27 00:29:20;;;;;;;4.18;2.45;;;;;;;18.32;55.45;95664.63;5010676;28;20197;-78
2022/07/27 00:31:45;;;;;;;4.05;2.40;;;;;;;18.32;55.36;95669.88;5030799;28;20192;-79
2022/07/27 00:34:10;;;;;;;2.92;2.30;;;;;;;18.30;55.57;95676.34;5024825;28;20222;-79
2022/07/27 00:36:38;;;;;;;3.90;2.20;;;;;;;18.28;55.75;95668.63;5027247;28;20227;-78
2022/07/27 00:39:04;;;;;;;4.43;2.35;;;;;;;18.23;55.69;95664.97;5043670;28;20193;-79
2022/07/27 00:41:29;;;;;;;3.25;2.08;;;;;;;18.21;55.79;95665.16;5027910;28;20189;-78
2022/07/27 00:43:56;;;;;;;4.38;2.55;;;;;;;18.19;55.91;95655.81;5034442;28;20535;-78
2022/07/27 00:46:22;;;;;;;5.30;2.42;;;;;;;18.11;56.05;95659.44;5029437;28;20196;-78
2022/07/27 00:48:47;;;;;;;3.50;2.53;;;;;;;18.05;56.36;95654.94;5037142;28;20272;-79
2022/07/27 00:51:13;;;;;;;3.17;2.80;;;;;;;17.99;56.81;95655.69;5028495;28;20196;-78
2022/07/27 00:53:39;;;;;;;2.88;2.58;;;;;;;17.95;57.19;95657.88;5025319;28;20252;-79
2022/07/27 00:56:05;;;;;;;3.30;2.67;;;;;;;17.89;57.35;95660.47;5011344;28;20206;-78
2022/07/27 00:58:30;;;;;;;4.50;2.72;;;;;;;17.69;58.23;95653.19;5013071;28;20190;-78
2022/07/27 01:00:56;;;;;;;3.75;2.22;;;;;;;17.56;59.02;95647.81;5027487;28;20236;-78
2022/07/27 01:03:21;;;;;;;2.90;2.45;;;;;;;17.46;59.61;95648.13;5013117;28;20208;-78
2022/07/27 01:05:46;;;;;;;3.58;2.70;;;;;;;17.50;59.29;95640.72;5011914;28;20285;-78
2022/07/27 01:08:12;;;;;;;5.63;2.65;;;;;;;17.67;58.90;95644.72;5012596;28;20273;-78
2022/07/27 01:10:39;;;;;;;5.15;2.55;;;;;;;17.68;58.77;95645.50;5027480;28;20182;-77
2022/07/27 01:13:04;;;;;;;2.67;2.47;;;;;;;17.64;58.86;95652.13;5028280;28;20243;-78
2022/07/27 01:15:29;;;;;;;3.50;2.45;;;;;;;17.61;59.29;95645.44;5042881;28;20201;-79
2022/07/27 01:17:55;;;;;;;4.57;2.63;;;;;;;17.62;59.14;95639.19;5024415;28;20205;-78
2022/07/27 01:20:21;;;;;;;4.63;2.70;;;;;;;17.60;58.98;95633.31;5009367;28;20289;-78
2022/07/27 01:22:46;;;;;;;6.75;2.72;;;;;;;17.55;59.12;95631.25;5027835;28;20221;-79
2022/07/27 01:25:11;;;;;;;3.47;2.67;;;;;;;17.49;59.96;95636.44;5048576;28;20596;-78
2022/07/27 01:27:37;;;;;;;3.63;2.70;;;;;;;17.48;59.86;95632.19;5027664;28;20212;-77
2022/07/27 01:30:25;;;;;;;4.57;2.90;;;;;;;17.47;60.24;95635.81;5010840;28;20633;-78
2022/07/27 01:32:49;;;;;;;3.95;2.65;;;;;;;17.45;60.13;95632.56;5045465;28;20210;-78
2022/07/27 01:35:14;;;;;;;4.88;2.80;;;;;;;17.40;60.40;95627.06;5047775;28;20216;-78
2022/07/27 01:37:40;;;;;;;6.13;2.65;;;;;;;17.36;60.51;95621.38;5042182;28;20186;-79
2022/07/27 01:40:05;;;;;;;3.13;2.83;;;;;;;17.34;60.65;95625.22;5026116;28;20179;-78
2022/07/27 01:42:30;;;;;;;4.38;2.95;;;;;;;17.37;60.46;95624.81;5039871;28;20214;-78
2022/07/27 01:44:56;;;;;;;4.00;2.83;;;;;;;17.27;61.17;95619.88;5027595;28;20228;-78
2022/07/27 01:47:21;;;;;;;4.05;3.10;;;;;;;17.32;61.13;95619.34;5046149;28;20182;-78
2022/07/27 01:49:46;;;;;;;5.32;3.35;;;;;;;17.28;61.26;95619.69;5033377;28;20568;-79
2022/07/27 01:52:12;;;;;;;4.65;2.92;;;;;;;17.24;61.60;95618.47;5031214;28;20221;-79
2022/07/27 01:54:37;;;;;;;5.93;3.00;;;;;;;17.23;62.08;95608.16;5032427;28;20194;-78
2022/07/27 01:57:03;;;;;;;4.75;3.10;;;;;;;17.15;62.02;95614.31;5049714;28;20181;-79
2022/07/27 01:59:28;;;;;;;4.43;3.30;;;;;;;17.18;61.97;95610.50;5030279;28;20191;-79
2022/07/27 02:01:53;;;;;;;6.20;3.28;;;;;;;17.12;62.54;95609.44;5031228;28;20210;-79
2022/07/27 02:04:19;;;;;;;4.22;3.20;;;;;;;17.10;62.90;95605.38;5032643;28;20824;-79
2022/07/27 02:06:44;;;;;;;5.35;3.13;;;;;;;17.07;63.00;95595.28;5032879;28;20186;-78
2022/07/27 02:09:09;;;;;;;5.70;3.30;;;;;;;17.12;63.14;95600.75;5029930;28;20189;-80
2022/07/27 02:14:19;;;;;;;5.53;3.30;;;;;;;17.11;63.25;95607.81;5031715;28;20189;-79
2022/07/27 02:16:44;;;;;;;6.18;3.20;;;;;;;17.09;63.61;95601.94;5022821;28;20209;-79
2022/07/27 02:19:09;;;;;;;6.70;3.10;;;;;;;17.14;63.34;95589.09;5052497;28;20178;-79
2022/07/27 02:21:35;;;;;;;4.57;3.50;;;;;;;17.14;63.94;95591.72;5029518;28;20217;-79
2022/07/27 02:24:00;;;;;;;3.97;3.15;;;;;;;17.10;64.02;95595.69;5033649;28;20220;-79
2022/07/27 02:26:26;;;;;;;5.20;3.50;;;;;;;17.11;64.35;95592.06;5051171;28;20181;-79
2022/07/27 02:28:51;;;;;;;5.40;3.63;;;;;;;17.12;64.32;95592.88;5030082;28;20190;-79
2022/07/27 02:31:16;;;;;;;4.20;3.13;;;;;;;17.12;64.02;95591.06;5014621;28;20191;-79
2022/07/27 02:33:42;;;;;;;6.15;3.30;;;;;;;17.09;64.50;95593.25;5035494;28;20673;-79
2022/07/27 02:36:07;;;;;;;4.53;3.67;;;;;;;17.08;64.63;95596.88;5031983;28;20216;-79
2022/07/27 02:38:32;;;;;;;3.45;3.15;;;;;;;17.09;64.73;95594.06;5035514;28;20240;-79
2022/07/27 02:40:58;;;;;;;7.88;3.75;;;;;;;17.04;64.97;95585.13;5013900;28;20194;-78
2022/07/27 02:43:23;;;;;;;4.25;3.40;;;;;;;16.99;65.47;95585.69;5032935;28;20206;-78
2022/07/27 02:45:48;;;;;;;6.22;3.47;;;;;;;17.02;65.57;95590.56;5049042;28;20513;-78
2022/07/27 02:48:14;;;;;;;4.13;3.20;;;;;;;17.00;65.46;95595.19;5050637;28;20774;-79
2022/07/27 02:50:39;;;;;;;5.45;3.92;;;;;;;16.93;65.89;95592.50;5033864;28;20619;-79
2022/07/27 02:53:04;;;;;;;6.72;3.92;;;;;;;16.94;65.82;95585.44;5032027;28;20234;-79
2022/07/27 02:55:30;;;;;;;6.65;3.70;;;;;;;16.85;66.22;95597.03;5029365;28;20628;-79
2022/07/27 02:57:55;;;;;;;5.40;3.60;;;;;;;16.85;66.61;95597.84;5014370;28;20233;-78
2022/07/27 03:00:20;;;;;;;6.00;3.88;;;;;;;16.82;66.50;95603.47;5054106;28;20181;-79
2022/07/27 03:02:49;;;;;;;6.22;3.78;;;;;;;16.78;67.09;95591.72;5044873;28;20198;-79
2022/07/27 03:05:14;;;;;;;6.20;4.20;;;;;;;16.76;67.48;95592.91;5030726;28;20183;-79
2022/07/27 03:07:40;;;;;;;5.68;3.95;;;;;;;16.79;67.61;95597.78;5013325;28;20189;-79
2022/07/27 03:10:05;;;;;;;5.68;3.55;;;;;;;16.82;67.75;95595.59;5015986;28;20677;-80
2022/07/27 03:12:31;;;;;;;4.65;3.60;;;;;;;16.87;67.80;95590.63;5028761;28;20256;-79
2022/07/27 03:14:56;;;;;;;7.32;4.07;;;;;;;16.89;67.70;95591.25;5013954;28;20322;-79
2022/07/27 03:17:21;;;;;;;5.10;3.60;;;;;;;16.93;67.70;95596.94;5030156;28;20189;-78
2022/07/27 03:19:48;;;;;;;5.35;3.85;;;;;;;16.99;67.59;95604.06;5030539;28;20182;-80
2022/07/27 03:22:13;;;;;;;7.43;4.00;;;;;;;16.98;67.69;95603.25;5014906;28;20198;-79
2022/07/27 03:24:39;;;;;;;3.97;3.60;;;;;;;16.99;67.88;95604.06;5011020;28;20190;-79
2022/07/27 03:27:04;;;;;;;5.05;4.13;;;;;;;16.93;67.92;95600.38;5030744;28;20278;-80
2022/07/27 03:29:29;;;;;;;4.18;3.25;;;;;;;16.96;67.75;95607.88;5028157;28;20186;-79
2022/07/27 03:31:55;;;;;;;3.63;3.33;;;;;;;17.02;67.76;95606.31;5037149;28;20685;-79
2022/07/27 03:34:20;;;;;;;11.00;3.75;;;;;;;16.97;68.07;95601.63;5029072;28;20186;-80
2022/07/27 03:36:45;;;;;;;4.45;4.10;;;;;;;16.89;68.16;95593.06;5031074;28;20209;-79
2022/07/27 03:39:12;;;;;;;4.13;3.58;;;;;;;16.96;67.91;95601.78;5028221;28;20179;-78
2022/07/27 03:41:37;;;;;;;9.98;3.63;;;;;;;16.90;68.38;95597.31;5016498;28;20677;-77
2022/07/27 03:44:02;;;;;;;3.80;3.40;;;;;;;16.94;68.48;95604.59;5046160;28;20182;-77
2022/07/27 03:46:27;;;;;;;3.75;3.45;;;;;;;16.95;68.74;95608.03;5045084;28;20190;-78
2022/07/27 03:48:53;;;;;;;5.00;3.88;;;;;;;16.87;69.06;95606.38;5045569;28;20593;-77
2022/07/27 03:51:18;;;;;;;5.20;3.72;;;;;;;16.92;69.05;95611.84;5014327;28;20194;-77
2022/07/27 03:53:43;;;;;;;6.57;3.47;;;;;;;16.94;69.03;95619.53;5047842;28;20208;-78
2022/07/27 03:56:09;;;;;;;4.45;4.05;;;;;;;16.94;69.10;95620.34;5030475;28;20573;-78
2022/07/27 03:58:34;;;;;;;4.28;3.63;;;;;;;16.88;69.79;95612.44;5036092;28;20190;-78
2022/07/27 04:00:59;;;;;;;4.43;3.50;;;;;;;16.90;69.41;95613.03;5045115;28;20194;-78
2022/07/27 04:03:24;;;;;;;3.80;3.50;;;;;;;16.92;69.63;95605.78;5009728;28;20210;-80
2022/07/27 04:05:51;;;;;;;6.38;4.30;;;;;;;16.90;69.71;95605.19;5030703;28;20233;-79
2022/07/27 04:08:16;;;;;;;3.90;3.55;;;;;;;16.86;69.97;95603.91;5023147;28;20236;-80
2022/07/27 04:10:42;;;;;;;4.53;4.03;;;;;;;16.86;69.84;95612.59;5027767;28;20245;-79
2022/07/27 04:13:07;;;;;;;8.68;4.50;;;;;;;16.88;69.94;95608.00;5007291;28;20202;-80
2022/07/27 04:15:32;;;;;;;4.45;4.10;;;;;;;16.91;69.78;95607.59;5023108;28;20285;-80
2022/07/27 04:17:58;;;;;;;4.20;3.90;;;;;;;16.93;69.87;95615.28;5025111;28;20205;-80
2022/07/27 04:20:24;;;;;;;4.35;3.83;;;;;;;16.92;69.71;95613.66;5026074;28;20198;-79
2022/07/27 04:22:50;;;;;;;6.43;4.00;;;;;;;16.96;69.76;95607.03;5045851;28;20216;-80
2022/07/27 04:25:15;;;;;;;3.92;3.63;;;;;;;16.93;69.86;95610.84;5021717;28;20182;-79
2022/07/27 04:27:41;;;;;;;4.63;3.88;;;;;;;16.96;69.74;95604.41;5011004;28;20287;-80
2022/07/27 04:30:06;;;;;;;4.18;3.70;;;;;;;16.98;69.80;95605.06;5024334;28;20213;-80
2022/07/27 04:32:32;;;;;;;4.72;3.40;;;;;;;17.08;69.09;95607.38;5041737;28;20631;-79
2022/07/27 04:34:57;;;;;;;4.70;3.92;;;;;;;17.07;69.28;95603.94;5024736;28;20260;-81
2022/07/27 04:37:22;;;;;;;3.90;3.47;;;;;;;17.08;69.55;95597.69;5023397;28;20186;-79
2022/07/27 04:39:48;;;;;;;5.00;3.88;;;;;;;17.02;69.54;95603.69;5007820;28;20186;-80
2022/07/27 04:42:13;;;;;;;6.80;4.07;;;;;;;17.03;69.25;95604.50;5043100;28;20212;-79
2022/07/27 04:44:38;;;;;;;4.70;3.97;;;;;;;17.12;69.35;95608.63;5005613;28;20677;-80
2022/07/27 04:47:04;;;;;;;4.72;4.32;;;;;;;17.10;69.58;95616.69;5042125;28;20208;-80
2022/07/27 04:49:29;;;;;;;5.20;4.13;;;;;;;17.02;69.89;95622.03;5024333;28;20179;-80
2022/07/27 04:51:54;;;;;;;6.03;4.30;;;;;;;17.11;69.33;95623.56;5011116;28;20536;-82
2022/07/27 04:54:20;;;;;;;7.25;4.35;;;;;;;17.08;70.04;95618.69;5043928;28;20217;-84
2022/07/27 04:56:45;;;;;;;4.25;3.85;;;;;;;17.10;69.73;95621.94;5025861;28;20208;-81
2022/07/27 04:59:10;;;;;;;5.15;3.60;;;;;;;17.18;69.36;95626.25;5042234;28;20209;-81
2022/07/27 05:01:36;;;;;;;4.43;3.90;;;;;;;17.12;69.43;95625.19;5013017;28;20209;-80
2022/07/27 05:04:02;;;;;;;5.30;3.35;;;;;;;17.29;69.05;95636.25;5033050;28;20280;-80
2022/07/27 05:06:29;;;;;;;4.40;4.00;;;;;;;17.42;68.49;95640.84;5022536;28;20174;-81
2022/07/27 05:08:54;;;;;;;8.43;3.97;;;;;;;17.45;68.18;95640.44;5007715;28;20207;-80
2022/07/27 05:11:19;;;;;;;4.28;3.88;;;;;;;17.53;67.87;95637.69;5007906;28;20189;-80
2022/07/27 05:13:45;;;;;;;6.90;4.20;;;;;;;17.60;67.49;95643.00;5004850;28;20590;-80
2022/07/27 05:16:10;;;;;;;4.68;4.05;;;;;;;17.61;66.99;95645.44;5042471;28;20220;-80
2022/07/27 05:18:36;;;;;;;6.20;4.00;;;;;;;17.76;67.19;95653.28;5024189;28;20308;-80
2022/07/27 05:21:02;;;;;;;4.60;3.58;;;;;;;17.84;66.27;95653.13;5022713;28;20178;-81
2022/07/27 05:23:27;;;;;;;6.40;4.03;;;;;;;17.73;67.12;95649.22;5012199;28;20197;-81
2022/07/27 05:25:52;;;;;;;4.00;3.70;;;;;;;17.76;66.79;95661.19;5045587;28;20229;-81
2022/07/27 05:28:18;;;;;;;7.45;4.30;;;;;;;17.85;66.63;95665.28;5011386;28;20187;-82
2022/07/27 05:30:43;;;;;;;4.55;4.05;;;;;;;17.68;67.31;95666.53;5030989;28;20231;-81
2022/07/27 05:33:08;;;;;;;5.50;4.30;;;;;;;17.91;66.35;95663.69;5013088;28;20206;-81
2022/07/27 05:35:34;;;;;;;5.15;4.28;;;;;;;17.67;68.33;95670.13;5028180;28;20689;-81
2022/07/27 05:37:59;;;;;;;5.97;3.85;;;;;;;17.82;66.93;95674.34;5030733;28;20561;-80
2022/07/27 05:40:25;;;;;;;6.15;3.75;;;;;;;17.94;66.39;95679.09;5011227;28;20849;-81
2022/07/27 05:42:50;;;;;;;5.43;4.10;;;;;;;17.79;66.98;95677.34;5027084;28;20324;-79
2022/07/27 05:45:15;;;;;;;5.05;4.22;;;;;;;17.66;67.27;95673.75;5028066;28;20178;-79
2022/07/27 05:47:41;;;;;;;7.63;4.10;;;;;;;17.59;67.61;95667.66;5025955;28;20183;-80
2022/07/27 05:50:06;;;;;;;5.40;4.53;;;;;;;17.82;66.56;95661.22;5027239;28;20182;-78
2022/07/27 05:52:32;;;;;;;6.93;4.45;;;;;;;17.74;66.42;95666.59;5045802;28;20202;-79
2022/07/27 05:54:57;;;;;;;5.28;4.18;;;;;;;18.07;65.08;95672.13;5025275;28;20201;-80
2022/07/27 05:57:22;;;;;;;6.78;3.90;;;;;;;18.23;64.59;95670.22;5003730;28;20190;-81
2022/07/27 05:59:53;;;;;;;5.22;4.03;;;;;;;18.18;64.73;95677.84;5027680;28;20181;-81
2022/07/27 06:02:18;;;;;;;5.20;4.35;;;;;;;18.38;64.03;95677.00;5025564;28;20256;-81
2022/07/27 06:04:43;;;;;;;5.93;4.15;;;;;;;20.25;57.41;95680.00;5027240;28;20182;-80
2022/07/27 06:09:52;;;;;;;4.75;4.10;;;;;;;21.65;51.04;95686.47;5038833;28;20236;-79
2022/07/27 06:12:18;;;;;;;4.43;3.60;;;;;;;20.81;54.13;95684.78;5025458;28;20210;-81
2022/07/27 06:14:43;;;;;;;3.97;3.20;;;;;;;20.64;54.49;95687.06;5010033;28;20182;-79
2022/07/27 06:17:09;;;;;;;4.30;3.60;;;;;;;20.59;54.53;95692.16;5028570;28;20226;-80
2022/07/27 06:19:38;;;;;;;7.18;4.45;;;;;;;19.67;57.81;95687.66;5028854;28;20224;-79
2022/07/27 06:22:03;;;;;;;4.97;4.43;;;;;;;19.59;58.71;95681.78;5010310;28;20678;-80
2022/07/27 06:24:29;;;;;;;5.80;4.88;;;;;;;19.02;60.39;95690.91;5025708;28;20233;-80
2022/07/27 06:26:54;;;;;;;5.15;4.40;;;;;;;18.73;62.57;95686.72;5027819;28;20221;-81
2022/07/27 06:29:19;;;;;;;5.10;4.03;;;;;;;19.12;60.97;95681.63;5025826;28;20189;-80
2022/07/27 06:31:45;;;;;;;6.57;5.28;;;;;;;18.77;62.40;95682.69;5034389;28;20186;-80
2022/07/27 06:34:10;;;;;;;5.10;4.60;;;;;;;18.78;62.59;95687.75;5010269;28;20182;-81
2022/07/27 06:36:38;;;;;;;6.28;4.80;;;;;;;18.98;62.15;95693.09;5025729;28;20578;-80
2022/07/27 06:39:04;;;;;;;5.15;4.72;;;;;;;19.15;60.20;95685.69;5027526;28;20185;-80
2022/07/27 06:41:29;;;;;;;6.13;4.47;;;;;;;19.37;59.54;95689.81;5029074;28;20193;-81
2022/07/27 06:43:55;;;;;;;4.90;4.45;;;;;;;19.10;60.77;95688.13;5025235;28;20211;-80
2022/07/27 06:46:20;;;;;;;8.88;4.85;;;;;;;19.15;60.26;95685.69;5027247;28;20219;-81
2022/07/27 06:48:45;;;;;;;4.68;4.20;;;;;;;18.96;60.87;95692.50;5011215;28;20181;-80
2022/07/27 06:51:10;;;;;;;5.53;4.80;;;;;;;18.99;60.77;95688.66;5026055;28;20191;-81
2022/07/27 06:53:36;;;;;;;5.18;4.68;;;;;;;19.26;60.03;95690.41;5027299;28;20251;-79
2022/07/27 06:56:07;;;;;;;4.60;4.20;;;;;;;18.74;62.09;95697.06;5026799;28;20209;-79
2022/07/27 06:58:33;;;;;;;5.25;4.65;;;;;;;19.21;60.26;95696.25;4994373;28;20190;-80
2022/07/27 07:01:01;;;;;;;5.82;4.65;;;;;;;19.10;60.73;95701.28;5027606;28;20182;-78
2022/07/27 07:03:29;;;;;;;5.13;4.10;;;;;;;19.30;60.52;95691.63;5035302;28;20209;-79
2022/07/27 07:05:54;;;;;;;7.18;5.13;;;;;;;19.51;59.25;95688.81;5024996;28;20186;-79
2022/07/27 07:08:21;;;;;;;7.53;4.60;;;;;;;19.32;59.65;95692.22;5026487;28;20190;-80
2022/07/27 07:10:47;;;;;;;6.05;4.25;;;;;;;19.31;60.12;95690.59;5027374;28;20186;-79
2022/07/27 07:13:12;;;;;;;5.10;4.60;;;;;;;19.26;59.70;95698.31;5026642;28;20216;-79
2022/07/27 07:15:39;;;;;;;7.13;3.80;;;;;;;18.87;61.04;95710.28;5042761;28;20233;-80
2022/07/27 07:18:05;;;;;;;4.25;3.85;;;;;;;19.57;58.31;95694.34;5008319;28;20198;-80
2022/07/27 07:20:31;;;;;;;4.47;4.07;;;;;;;19.59;58.45;95698.41;5027081;28;20208;-79
2022/07/27 07:22:57;;;;;;;5.15;4.28;;;;;;;19.17;59.47;95696.81;5043339;28;20194;-80
2022/07/27 07:25:22;;;;;;;4.35;3.30;;;;;;;19.58;58.21;95691.50;5007657;28;20224;-79
2022/07/27 07:27:48;;;;;;;6.63;4.10;;;;;;;19.23;59.20;95693.41;5027293;28;20692;-80
2022/07/27 07:30:13;;;;;;;4.05;3.75;;;;;;;19.34;59.13;95699.91;5024665;28;20218;-80
2022/07/27 07:32:38;;;;;;;4.05;3.47;;;;;;;19.75;57.48;95697.22;5008490;28;20246;-79
2022/07/27 07:35:05;;;;;;;4.35;3.95;;;;;;;19.69;58.35;95687.47;5026457;28;20177;-79
2022/07/27 07:37:31;;;;;;;4.50;3.88;;;;;;;19.45;57.98;95691.47;5025018;28;20296;-79
2022/07/27 07:39:56;;;;;;;5.88;4.30;;;;;;;19.09;59.09;95703.09;5009281;28;20190;-80
2022/07/27 07:42:22;;;;;;;6.28;4.05;;;;;;;19.01;59.57;95698.00;5026836;28;20681;-79
2022/07/27 07:44:47;;;;;;;4.57;3.90;;;;;;;19.23;58.65;95688.94;5007085;28;20190;-81
2022/07/27 07:47:12;;;;;;;4.25;3.67;;;;;;;19.63;57.18;95693.56;5025538;28;20181;-81
2022/07/27 07:49:38;;;;;;;3.63;3.13;;;;;;;20.15;55.40;95694.63;5009877;28;20189;-81
2022/07/27 07:52:03;;;;;;;6.55;4.38;;;;;;;19.63;57.77;95696.19;5041507;28;20210;-81
2022/07/27 07:54:28;;;;;;;4.15;3.75;;;;;;;19.70;57.12;95689.09;5043243;28;20181;-81
2022/07/27 07:56:54;;;;;;;8.90;3.83;;;;;;;19.83;56.65;95688.31;5009258;28;20217;-78
2022/07/27 07:59:19;;;;;;;5.88;4.35;;;;;;;19.18;58.78;95680.03;5006957;28;20198;-80
2022/07/27 08:01:44;;;;;;;4.43;3.30;;;;;;;19.43;57.30;95683.72;5026185;28;20526;-81
2022/07/27 08:04:10;;;;;;;6.07;4.05;;;;;;;19.13;58.19;95687.72;5025045;28;20305;-80
2022/07/27 08:06:37;;;;;;;5.35;4.05;;;;;;;19.21;58.43;95692.81;5007123;28;20194;-79
2022/07/27 08:09:03;;;;;;;5.07;4.25;;;;;;;19.32;57.45;95696.69;5031699;28;20277;-80
2022/07/27 08:11:28;;;;;;;5.30;4.50;;;;;;;19.08;59.65;95705.91;5024891;28;20718;-80
2022/07/27 08:13:54;;;;;;;8.38;4.22;;;;;;;19.35;59.05;95702.38;5025133;28;20206;-80
2022/07/27 08:16:19;;;;;;;6.55;4.53;;;;;;;19.02;59.61;95706.69;5023648;28;20209;-79
2022/07/27 08:18:44;;;;;;;4.88;4.15;;;;;;;19.12;59.82;95709.78;5042596;28;20201;-81
2022/07/27 08:21:10;;;;;;;5.50;4.30;;;;;;;19.33;58.82;95714.09;5009499;28;20197;-79
2022/07/27 08:23:35;;;;;;;5.85;4.53;;;;;;;19.20;59.01;95717.50;5006390;28;20241;-79
2022/07/27 08:26:01;;;;;;;6.13;4.85;;;;;;;19.54;57.52;95719.25;5024715;28;20596;-79
2022/07/27 08:28:26;;;;;;;6.63;4.57;;;;;;;19.97;56.08;95706.56;5008780;28;20211;-80
2022/07/27 08:30:52;;;;;;;6.85;3.65;;;;;;;20.14;56.01;95701.69;5006669;28;20186;-80
2022/07/27 08:33:17;;;;;;;4.72;4.05;;;;;;;20.28;55.53;95711.22;5025068;28;20206;-81
2022/07/27 08:35:43;;;;;;;5.18;4.53;;;;;;;20.77;53.86;95711.81;5007383;28;20269;-78
2022/07/27 08:38:09;;;;;;;5.90;4.30;;;;;;;20.73;54.16;95705.31;5023109;28;20209;-79
2022/07/27 08:40:35;;;;;;;5.63;4.55;;;;;;;20.58;54.75;95709.00;5025599;28;20630;-79
2022/07/27 08:43:02;;;;;;;5.63;4.57;;;;;;;21.20;53.32;95712.03;5007777;28;20324;-79
2022/07/27 08:45:27;;;;;;;7.93;5.15;;;;;;;20.37;55.38;95706.53;5033827;28;20193;-80
2022/07/27 08:47:53;;;;;;;7.80;5.07;;;;;;;21.30;52.71;95704.53;5043741;28;20594;-80
2022/07/27 08:50:22;;;;;;;5.30;4.80;;;;;;;21.74;51.68;95708.16;5041688;28;20174;-80
2022/07/27 08:52:59;;;;;;;6.55;3.85;;;;;;;21.86;51.30;95710.91;5034198;28;20205;-79
2022/07/27 08:55:25;;;;;;;4.82;4.43;;;;;;;21.21;52.38;95717.13;5023465;28;20198;-79
2022/07/27 08:57:51;;;;;;;5.50;3.88;;;;;;;20.74;54.01;95718.28;5021102;28;20190;-79
2022/07/27 09:00:17;;;;;;;6.28;4.60;;;;;;;20.18;54.70;95724.00;5025054;28;20604;-80
2022/07/27 09:02:43;;;;;;;4.63;4.03;;;;;;;20.36;54.59;95715.47;5024142;28;20198;-80
2022/07/27 09:05:09;;;;;;;4.95;3.90;;;;;;;21.08;53.07;95719.81;5005728;28;20182;-81
2022/07/27 09:07:34;;;;;;;5.05;3.65;;;;;;;21.72;50.80;95716.28;5043027;28;20208;-81
2022/07/27 09:10:00;;;;;;;7.65;4.20;;;;;;;22.05;49.79;95721.34;5023932;28;20218;-79
2022/07/27 09:12:27;;;;;;;5.30;3.70;;;;;;;21.62;50.31;95720.41;5033409;28;20223;-80
2022/07/27 09:15:03;;;;;;;4.53;4.13;;;;;;;22.36;48.30;95722.38;5011953;28;20208;-80
2022/07/27 09:17:28;;;;;;;5.85;4.13;;;;;;;22.56;47.59;95723.00;5016701;28;20194;-81
2022/07/27 09:19:56;;;;;;;6.82;3.83;;;;;;;22.39;48.12;95713.19;5032816;28;20610;-79
2022/07/27 09:23:00;;;;;;;4.40;4.00;;;;;;;22.43;48.60;95712.53;5023780;28;20218;-79
2022/07/27 09:25:29;;;;;;;5.63;4.05;;;;;;;22.51;47.61;95722.03;4972882;28;20195;-79
2022/07/27 09:27:56;;;;;;;4.35;3.53;;;;;;;22.39;47.88;95724.56;4979338;28;20204;-80
2022/07/27 09:30:22;;;;;;;3.45;3.00;;;;;;;23.10;46.59;95712.69;4979500;28;20668;-79
2022/07/27 09:32:58;;;;;;;3.50;3.20;;;;;;;23.54;45.01;95708.88;4963119;28;20212;-81
2022/07/27 09:35:32;;;;;;;4.30;3.92;;;;;;;22.97;45.65;95711.03;4961659;28;20224;-81
2022/07/27 09:38:17;;;;;;;4.15;3.10;;;;;;;23.43;43.75;95720.25;4963219;28;20228;-80
2022/07/27 09:40:42;;;;;;;4.90;3.60;;;;;;;23.30;44.81;95712.44;4983105;28;20695;-80
2022/07/27 09:43:09;;;;;;;6.07;3.50;;;;;;;23.03;44.78;95714.59;4965133;28;20251;-80
2022/07/27 09:45:36;;;;;;;6.15;3.35;;;;;;;23.22;45.21;95718.03;4978705;28;20289;-79
2022/07/27 09:48:32;;;;;;;4.82;3.60;;;;;;;23.06;44.62;95715.00;4963028;28;20227;-79
2022/07/27 09:50:57;;;;;;;4.97;3.25;;;;;;;23.12;44.49;95715.91;4888977;29;20222;-80
2022/07/27 09:53:25;;;;;;;3.28;2.95;;;;;;;24.00;42.86;95712.72;4922608;29;20260;-79
2022/07/27 09:56:06;;;;;;;4.72;3.45;;;;;;;24.39;41.12;95714.00;4922990;28;20231;-80
2022/07/27 09:58:41;;;;;;;4.07;3.67;;;;;;;24.31;40.63;95709.00;4935733;28;20732;-79
2022/07/27 10:01:11;;;;;;;7.35;3.78;;;;;;;23.76;42.44;95709.19;4933380;28;20673;-78
2022/07/27 10:03:41;;;;;;;6.55;3.50;;;;;;;23.23;42.99;95715.16;4954119;28;20212;-80
2022/07/27 10:06:09;;;;;;;6.13;3.70;;;;;;;22.04;45.83;95713.63;4948011;28;20193;-81
2022/07/27 10:08:36;;;;;;;6.75;3.58;;;;;;;22.32;45.03;95710.59;4956111;28;20229;-80
2022/07/27 10:11:02;;;;;;;5.32;3.97;;;;;;;22.00;45.87;95709.81;4954541;28;20192;-79
2022/07/27 10:13:27;;;;;;;4.07;3.67;;;;;;;22.60;45.35;95712.78;4940594;28;20661;-79
2022/07/27 10:15:53;;;;;;;5.22;3.42;;;;;;;23.16;44.12;95711.81;4957373;28;20707;-80
2022/07/27 10:18:47;;;;;;;5.72;3.92;;;;;;;22.98;43.96;95704.69;4950760;28;20192;-81
2022/07/27 10:21:12;;;;;;;3.40;3.15;;;;;;;22.82;44.02;95714.00;4954476;28;20193;-80
2022/07/27 10:23:38;;;;;;;9.93;4.05;;;;;;;23.13;43.38;95710.41;4958099;28;20231;-79
2022/07/27 10:26:19;;;;;;;4.53;3.05;;;;;;;23.74;42.42;95713.94;4957946;28;20200;-80
2022/07/27 10:29:05;;;;;;;4.60;3.10;;;;;;;23.42;42.43;95703.53;5010984;28;20653;-80
2022/07/27 10:31:36;;;;;;;4.10;3.20;;;;;;;23.14;41.76;95704.06;5027989;28;20182;-80
2022/07/27 10:34:04;;;;;;;4.25;3.30;;;;;;;22.89;42.42;95706.00;5028939;28;20193;-80
2022/07/27 10:36:29;;;;;;;4.10;3.40;;;;;;;22.70;43.07;95705.13;5026209;28;20241;-81
2022/07/27 10:38:57;;;;;;;6.17;3.57;;;;;;;22.77;43.30;95694.47;5045990;28;20217;-80
2022/07/27 10:41:24;;;;;;;3.65;3.20;;;;;;;22.98;42.08;95706.53;5009442;28;20553;-80
2022/07/27 10:43:50;;;;;;;4.03;3.17;;;;;;;22.98;42.69;95703.88;5043176;28;20210;-79
2022/07/27 10:46:19;;;;;;;5.55;3.20;;;;;;;22.85;43.22;95700.34;5027410;28;20185;-79
2022/07/27 10:48:45;;;;;;;10.25;3.25;;;;;;;22.86;42.60;95701.13;5022421;28;20190;-79
2022/07/27 10:51:11;;;;;;;3.53;2.90;;;;;;;22.74;43.23;95702.88;5020833;28;20582;-79
2022/07/27 10:53:38;;;;;;;9.93;3.35;;;;;;;23.01;42.91;95708.72;5018662;28;20202;-81
2022/07/27 10:56:05;;;;;;;4.32;3.10;;;;;;;22.87;43.56;95711.50;5026163;28;20229;-80
2022/07/27 10:58:30;;;;;;;4.72;2.90;;;;;;;22.28;45.26;95709.41;5025870;28;20190;-81
2022/07/27 11:01:07;;;;;;;4.38;3.13;;;;;;;22.62;44.10;95710.75;5028235;28;20200;-81
2022/07/27 11:03:35;;;;;;;6.50;3.58;;;;;;;22.52;44.23;95710.41;5012344;28;20209;-81
2022/07/27 11:06:06;;;;;;;5.88;2.75;;;;;;;23.10;42.00;95702.09;5025514;28;20232;-80
2022/07/27 11:08:41;;;;;;;4.65;2.70;;;;;;;22.74;44.90;95702.88;5045028;28;20273;-81
2022/07/27 11:11:09;;;;;;;4.32;2.60;;;;;;;23.08;44.03;95699.69;5032490;28;20657;-80
2022/07/27 11:13:34;;;;;;;4.68;2.78;;;;;;;22.72;43.82;95720.81;5010175;28;20769;-81
2022/07/27 11:16:11;;;;;;;7.45;3.10;;;;;;;22.20;45.17;95714.97;5025264;28;20266;-81
2022/07/27 11:18:38;;;;;;;7.22;2.92;;;;;;;21.52;46.84;95709.50;5010389;28;20194;-81
2022/07/27 11:21:20;;;;;;;3.22;2.95;;;;;;;22.11;45.39;95705.69;5035903;28;20201;-80
2022/07/27 11:23:52;;;;;;;3.35;2.75;;;;;;;22.31;45.02;95708.97;5019501;28;20293;-80
2022/07/27 11:26:18;;;;;;;11.00;2.88;;;;;;;22.55;45.07;95704.69;5025981;28;20206;-82
2022/07/27 11:28:44;;;;;;;3.95;3.10;;;;;;;22.14;46.03;95707.91;5042382;28;20177;-81
2022/07/27 11:31:12;;;;;;;3.00;2.50;;;;;;;21.99;46.75;95705.53;5012403;28;20645;-81
2022/07/27 11:33:53;;;;;;;4.85;3.00;;;;;;;22.63;45.40;95707.06;5009819;28;20232;-80
2022/07/27 11:36:19;;;;;;;3.28;2.97;;;;;;;23.13;43.85;95696.34;5044955;28;20209;-80